Time;durP1;ratioP1;P1;durP2;ratioP2;P2;SDS_P1;SDS_P2;PMS_P1;PMS_P2;Temp;Humidity;BMP_temperature;BMP_pressure;BME280_temperature;BME280_humidity;BME280_pressure;Samples;Min_cycle;Max_cycle;Signal;HPM_P1;HPM_P2
2023/08/29 00:01:44;;;;;;;3.45;2.92;;;;;;;;;;5044658;28;20107;-58
2023/08/29 00:04:10;;;;;;;3.42;3.13;;;;;;;;;;5044241;28;20056;-58
2023/08/29 00:06:37;;;;;;;4.28;2.50;;;;;;;;;;5044499;28;20491;-59
2023/08/29 00:09:03;;;;;;;3.92;2.92;;;;;;;;;;5052589;28;20131;-58
2023/08/29 00:11:30;;;;;;;2.83;2.55;;;;;;;;;;5035104;28;20058;-59
2023/08/29 00:13:57;;;;;;;2.90;2.60;;;;;;;;;;5055465;28;20068;-59
2023/08/29 00:16:23;;;;;;;4.97;2.80;;;;;;;;;;5047930;28;20586;-57
2023/08/29 00:18:49;;;;;;;5.38;2.97;;;;;;;;;;5060656;28;20104;-58
2023/08/29 00:21:16;;;;;;;5.55;2.60;;;;;;;;;;5038832;28;20053;-59
2023/08/29 00:23:42;;;;;;;4.57;2.55;;;;;;;;;;5044904;28;20057;-58
2023/08/29 00:26:09;;;;;;;5.75;2.42;;;;;;;;;;5042786;28;20653;-59
2023/08/29 00:28:35;;;;;;;3.97;2.55;;;;;;;;;;5039364;28;20057;-58
2023/08/29 00:31:02;;;;;;;2.92;2.53;;;;;;;;;;5046246;28;20578;-58
2023/08/29 00:33:28;;;;;;;5.30;2.70;;;;;;;;;;5044319;28;20058;-58
2023/08/29 00:35:55;;;;;;;3.97;2.42;;;;;;;;;;5044522;28;20410;-58
2023/08/29 00:38:21;;;;;;;8.88;2.70;;;;;;;;;;5042898;28;20516;-58
2023/08/29 00:40:48;;;;;;;4.53;2.50;;;;;;;;;;5043608;28;20176;-56
2023/08/29 00:43:14;;;;;;;3.28;2.60;;;;;;;;;;5040369;28;20519;-57
2023/08/29 00:45:40;;;;;;;3.33;2.47;;;;;;;;;;5054480;28;20057;-59
2023/08/29 00:48:08;;;;;;;4.15;2.45;;;;;;;;;;5031631;28;20432;-59
2023/08/29 00:50:35;;;;;;;2.60;2.40;;;;;;;;;;5041223;28;20136;-58
2023/08/29 00:53:03;;;;;;;2.90;2.25;;;;;;;;;;5032741;28;20052;-58
2023/08/29 00:55:31;;;;;;;3.90;2.30;;;;;;;;;;5041350;28;20137;-58
2023/08/29 00:57:59;;;;;;;4.43;2.70;;;;;;;;;;5052021;28;20148;-58
2023/08/29 01:00:27;;;;;;;3.72;2.50;;;;;;;;;;5050047;28;20127;-58
2023/08/29 01:02:54;;;;;;;3.85;2.28;;;;;;;;;;5044186;28;20141;-57
2023/08/29 01:05:20;;;;;;;6.13;2.42;;;;;;;;;;5028813;28;20531;-58
2023/08/29 01:07:48;;;;;;;2.58;2.28;;;;;;;;;;5042109;28;20058;-59
2023/08/29 01:10:14;;;;;;;3.80;2.45;;;;;;;;;;5031818;28;20100;-58
2023/08/29 01:12:55;;;;;;;3.55;2.38;;;;;;;;;;5052400;28;20517;-57
2023/08/29 01:15:27;;;;;;;3.47;2.25;;;;;;;;;;5043307;28;20053;-56
2023/08/29 01:17:56;;;;;;;3.35;2.45;;;;;;;;;;5041583;28;20136;-58
2023/08/29 01:20:23;;;;;;;5.75;2.42;;;;;;;;;;5042480;28;20058;-57
2023/08/29 01:23:03;;;;;;;6.38;2.47;;;;;;;;;;5045037;28;20057;-59
2023/08/29 01:25:40;;;;;;;2.33;1.70;;;;;;;;;;5029979;28;20567;-59
2023/08/29 01:28:06;;;;;;;2.85;2.10;;;;;;;;;;5043053;28;20599;-59
2023/08/29 01:30:33;;;;;;;2.90;1.95;;;;;;;;;;5043912;28;20423;-54
2023/08/29 01:33:00;;;;;;;2.58;2.00;;;;;;;;;;5048637;28;20087;-58
2023/08/29 01:35:27;;;;;;;3.05;1.85;;;;;;;;;;5037246;28;20054;-58
2023/08/29 01:37:53;;;;;;;2.95;2.28;;;;;;;;;;5035946;28;20073;-56
2023/08/29 01:40:20;;;;;;;4.68;2.13;;;;;;;;;;5033514;28;20057;-58
2023/08/29 01:42:46;;;;;;;2.42;2.22;;;;;;;;;;5043413;28;20480;-58
2023/08/29 01:45:13;;;;;;;6.13;2.20;;;;;;;;;;5044163;28;20057;-57
2023/08/29 01:47:39;;;;;;;5.55;2.30;;;;;;;;;;5043176;28;20060;-59
2023/08/29 01:50:06;;;;;;;2.35;2.15;;;;;;;;;;5047016;28;20053;-57
2023/08/29 01:52:32;;;;;;;3.58;2.03;;;;;;;;;;5043363;28;20061;-58
2023/08/29 01:54:59;;;;;;;3.58;1.95;;;;;;;;;;5043476;28;20159;-57
2023/08/29 01:57:26;;;;;;;2.85;2.25;;;;;;;;;;5046876;28;20057;-59
2023/08/29 01:59:53;;;;;;;2.90;2.17;;;;;;;;;;5043826;28;20152;-57
2023/08/29 02:02:20;;;;;;;4.25;1.90;;;;;;;;;;5035416;28;20586;-58
2023/08/29 02:04:46;;;;;;;3.83;2.05;;;;;;;;;;5039647;28;20058;-59
2023/08/29 02:07:12;;;;;;;3.25;2.10;;;;;;;;;;5035176;28;20481;-59
2023/08/29 02:09:39;;;;;;;3.22;2.30;;;;;;;;;;5044342;28;20143;-58
2023/08/29 02:12:05;;;;;;;5.20;1.85;;;;;;;;;;5040992;28;20139;-57
2023/08/29 02:14:32;;;;;;;4.03;2.03;;;;;;;;;;5043292;28;20297;-59
2023/08/29 02:16:58;;;;;;;1.98;1.70;;;;;;;;;;5035278;28;20049;-59
2023/08/29 02:19:26;;;;;;;4.53;2.10;;;;;;;;;;5036279;28;20144;-58
2023/08/29 02:21:52;;;;;;;6.90;2.20;;;;;;;;;;5042535;28;20104;-59
2023/08/29 02:24:19;;;;;;;5.43;2.35;;;;;;;;;;5042768;28;20554;-58
2023/08/29 02:26:45;;;;;;;3.78;2.03;;;;;;;;;;5044718;28;20064;-60
2023/08/29 02:29:12;;;;;;;4.45;2.03;;;;;;;;;;5031302;28;20177;-59
2023/08/29 02:31:38;;;;;;;5.43;1.60;;;;;;;;;;5038856;28;20507;-60
2023/08/29 02:34:05;;;;;;;2.63;1.80;;;;;;;;;;5033767;28;20058;-59
2023/08/29 02:36:31;;;;;;;6.22;1.90;;;;;;;;;;5042865;28;20084;-59
2023/08/29 02:38:57;;;;;;;3.95;1.83;;;;;;;;;;5042508;28;20060;-60
2023/08/29 02:41:24;;;;;;;2.28;1.80;;;;;;;;;;5045608;28;20055;-57
2023/08/29 02:43:50;;;;;;;2.58;2.05;;;;;;;;;;5042919;28;20104;-59
2023/08/29 02:46:16;;;;;;;2.63;1.65;;;;;;;;;;5042874;28;20056;-59
2023/08/29 02:48:44;;;;;;;5.43;1.90;;;;;;;;;;5042654;28;20092;-60
2023/08/29 02:51:10;;;;;;;2.40;1.88;;;;;;;;;;5047654;28;20049;-60
2023/08/29 02:53:37;;;;;;;3.70;2.30;;;;;;;;;;5049903;28;20053;-60
2023/08/29 02:56:03;;;;;;;2.33;2.10;;;;;;;;;;5035550;28;20054;-60
2023/08/29 02:58:30;;;;;;;3.67;2.08;;;;;;;;;;5043343;28;20057;-60
2023/08/29 03:00:57;;;;;;;4.88;2.13;;;;;;;;;;5030914;28;21303;-60
2023/08/29 03:03:23;;;;;;;4.32;1.77;;;;;;;;;;5050105;28;20059;-60
2023/08/29 03:05:56;;;;;;;2.47;1.95;;;;;;;;;;5042066;28;20088;-60
2023/08/29 03:08:23;;;;;;;2.25;2.05;;;;;;;;;;5040045;28;20160;-60
2023/08/29 03:10:50;;;;;;;3.30;2.00;;;;;;;;;;5042059;28;20058;-59
2023/08/29 03:13:17;;;;;;;2.83;1.90;;;;;;;;;;5042102;28;20148;-59
2023/08/29 03:15:44;;;;;;;7.88;2.05;;;;;;;;;;5040823;28;20061;-60
2023/08/29 03:18:11;;;;;;;3.80;2.55;;;;;;;;;;5041140;28;20573;-60
2023/08/29 03:20:40;;;;;;;2.13;1.90;;;;;;;;;;5042224;28;20060;-59
2023/08/29 03:23:07;;;;;;;2.17;1.98;;;;;;;;;;5043114;28;20054;-60
2023/08/29 03:25:33;;;;;;;2.22;1.85;;;;;;;;;;5046254;28;20516;-59
2023/08/29 03:28:00;;;;;;;4.30;2.50;;;;;;;;;;5046301;28;20559;-59
2023/08/29 03:30:27;;;;;;;3.95;2.33;;;;;;;;;;5047104;28;20049;-60
2023/08/29 03:32:53;;;;;;;2.88;2.22;;;;;;;;;;5039583;28;20599;-59
2023/08/29 03:35:20;;;;;;;3.50;2.00;;;;;;;;;;5045315;28;20498;-60
2023/08/29 03:37:46;;;;;;;2.45;2.10;;;;;;;;;;5033927;28;20137;-60
2023/08/29 03:40:13;;;;;;;2.20;1.92;;;;;;;;;;5025594;28;20112;-60
2023/08/29 03:42:39;;;;;;;2.70;2.05;;;;;;;;;;5025491;28;20529;-59
2023/08/29 03:45:06;;;;;;;2.60;2.13;;;;;;;;;;5025980;28;20085;-61
2023/08/29 03:47:33;;;;;;;3.05;1.80;;;;;;;;;;5028932;28;20452;-61
2023/08/29 03:50:00;;;;;;;2.40;2.05;;;;;;;;;;5026252;28;20590;-58
2023/08/29 03:52:26;;;;;;;4.95;1.98;;;;;;;;;;5044662;28;20600;-60
2023/08/29 03:54:53;;;;;;;1.95;1.83;;;;;;;;;;5043475;28;20053;-59
2023/08/29 03:57:20;;;;;;;3.55;2.03;;;;;;;;;;5044706;28;20048;-60
2023/08/29 03:59:47;;;;;;;2.58;2.00;;;;;;;;;;5050493;28;20788;-60
2023/08/29 04:02:13;;;;;;;3.38;2.40;;;;;;;;;;5039780;28;20056;-60
2023/08/29 04:04:39;;;;;;;4.78;2.42;;;;;;;;;;5033024;28;20057;-60
2023/08/29 04:07:06;;;;;;;3.17;2.17;;;;;;;;;;5043129;28;20065;-60
2023/08/29 04:09:33;;;;;;;4.68;2.25;;;;;;;;;;5045344;28;20611;-60
2023/08/29 04:11:59;;;;;;;2.50;2.17;;;;;;;;;;5045063;28;20140;-60
2023/08/29 04:14:26;;;;;;;2.63;1.92;;;;;;;;;;5044593;28;20140;-60
2023/08/29 04:16:53;;;;;;;3.20;2.30;;;;;;;;;;5048585;28;20045;-60
2023/08/29 04:19:20;;;;;;;7.03;2.30;;;;;;;;;;5043858;28;20116;-60
2023/08/29 04:21:48;;;;;;;3.33;2.33;;;;;;;;;;5044786;28;20100;-60
2023/08/29 04:24:14;;;;;;;2.55;2.08;;;;;;;;;;5042759;28;20049;-58
2023/08/29 04:26:40;;;;;;;2.78;2.10;;;;;;;;;;5042917;28;20103;-59
2023/08/29 04:29:07;;;;;;;7.35;2.63;;;;;;;;;;5024732;28;20054;-60
2023/08/29 04:31:33;;;;;;;3.97;2.60;;;;;;;;;;5035967;28;20062;-60
2023/08/29 04:34:00;;;;;;;2.78;2.30;;;;;;;;;;5044072;28;20531;-60
2023/08/29 04:36:26;;;;;;;7.35;2.45;;;;;;;;;;5043401;28;20049;-60
2023/08/29 04:38:53;;;;;;;4.55;2.53;;;;;;;;;;5044296;28;20057;-59
2023/08/29 04:41:20;;;;;;;4.65;2.85;;;;;;;;;;5047992;28;20567;-60
2023/08/29 04:43:46;;;;;;;2.40;2.15;;;;;;;;;;5044106;28;20049;-58
2023/08/29 04:46:13;;;;;;;5.25;2.75;;;;;;;;;;5052264;28;20061;-60
2023/08/29 04:48:39;;;;;;;2.80;2.10;;;;;;;;;;5037734;28;20124;-60
2023/08/29 04:51:05;;;;;;;3.80;2.67;;;;;;;;;;5048995;28;20059;-60
2023/08/29 04:53:32;;;;;;;5.85;2.42;;;;;;;;;;5055785;28;20100;-61
2023/08/29 04:56:00;;;;;;;3.17;2.30;;;;;;;;;;5043261;28;20610;-60
2023/08/29 04:58:27;;;;;;;2.60;2.40;;;;;;;;;;5044057;28;20458;-60
2023/08/29 05:00:54;;;;;;;6.88;2.67;;;;;;;;;;5045272;28;20061;-60
2023/08/29 05:03:21;;;;;;;4.80;2.78;;;;;;;;;;5063280;28;20133;-60
2023/08/29 05:05:48;;;;;;;3.55;2.72;;;;;;;;;;5046594;28;20053;-60
2023/08/29 05:08:14;;;;;;;8.10;2.65;;;;;;;;;;5044201;28;20054;-58
2023/08/29 05:10:41;;;;;;;4.88;2.50;;;;;;;;;;5052799;28;20061;-60
2023/08/29 05:13:07;;;;;;;6.45;3.42;;;;;;;;;;5056407;28;20527;-60
2023/08/29 05:15:34;;;;;;;3.22;2.30;;;;;;;;;;5061556;28;20507;-60
2023/08/29 05:18:00;;;;;;;7.55;2.50;;;;;;;;;;5063381;28;20620;-59
2023/08/29 05:20:27;;;;;;;4.47;2.63;;;;;;;;;;5060490;28;20080;-60
2023/08/29 05:22:53;;;;;;;3.40;2.50;;;;;;;;;;5033787;28;20168;-61
2023/08/29 05:25:20;;;;;;;2.75;2.22;;;;;;;;;;5024391;28;20054;-61
2023/08/29 05:27:46;;;;;;;5.57;2.60;;;;;;;;;;5023782;28;20517;-60
2023/08/29 05:30:13;;;;;;;5.38;3.10;;;;;;;;;;5025181;28;20058;-59
2023/08/29 05:32:39;;;;;;;7.97;2.47;;;;;;;;;;5046156;28;20088;-58
2023/08/29 05:35:07;;;;;;;3.72;2.75;;;;;;;;;;5043190;28;20052;-60
2023/08/29 05:37:33;;;;;;;4.65;2.78;;;;;;;;;;5055745;28;20508;-54
2023/08/29 05:40:00;;;;;;;4.82;2.58;;;;;;;;;;5043414;28;20448;-59
2023/08/29 05:42:27;;;;;;;3.50;2.80;;;;;;;;;;5043125;28;20587;-59
2023/08/29 05:44:53;;;;;;;3.28;2.20;;;;;;;;;;5028981;28;20070;-59
2023/08/29 05:47:20;;;;;;;3.47;2.75;;;;;;;;;;5036339;28;20255;-60
2023/08/29 05:49:46;;;;;;;8.73;3.28;;;;;;;;;;5042799;28;20432;-59
2023/08/29 05:52:13;;;;;;;6.40;3.20;;;;;;;;;;5056137;28;20144;-60
2023/08/29 05:54:39;;;;;;;6.70;3.58;;;;;;;;;;5043067;28;20061;-58
2023/08/29 05:57:05;;;;;;;7.18;3.50;;;;;;;;;;5045604;28;20468;-56
2023/08/29 05:59:33;;;;;;;3.97;3.38;;;;;;;;;;5043108;28;20215;-59
2023/08/29 06:02:00;;;;;;;4.38;3.20;;;;;;;;;;5054932;28;20053;-59
2023/08/29 06:04:27;;;;;;;8.23;3.72;;;;;;;;;;5036915;28;20487;-59
2023/08/29 06:06:54;;;;;;;4.95;3.38;;;;;;;;;;5037557;28;20115;-58
2023/08/29 06:09:20;;;;;;;6.10;3.30;;;;;;;;;;5043022;28;20094;-60
2023/08/29 06:11:46;;;;;;;5.05;3.50;;;;;;;;;;5037557;28;20555;-58
2023/08/29 06:14:13;;;;;;;6.60;3.53;;;;;;;;;;5035421;28;20054;-59
2023/08/29 06:16:39;;;;;;;12.82;3.92;;;;;;;;;;5043173;28;20601;-58
2023/08/29 06:19:06;;;;;;;8.73;3.70;;;;;;;;;;5038590;28;20118;-58
2023/08/29 06:21:32;;;;;;;11.77;3.40;;;;;;;;;;5046957;28;20432;-60
2023/08/29 06:23:59;;;;;;;7.25;3.58;;;;;;;;;;5022397;28;20444;-59
2023/08/29 06:26:25;;;;;;;12.05;3.20;;;;;;;;;;5036656;28;20568;-59
2023/08/29 06:28:52;;;;;;;5.90;3.05;;;;;;;;;;5042579;28;20504;-60
2023/08/29 06:31:18;;;;;;;5.85;2.75;;;;;;;;;;5053406;28;20053;-54
2023/08/29 06:33:44;;;;;;;5.50;3.00;;;;;;;;;;5046116;28;20061;-60
2023/08/29 06:36:11;;;;;;;4.60;2.88;;;;;;;;;;5034906;28;20494;-60
2023/08/29 06:38:39;;;;;;;3.80;2.40;;;;;;;;;;5031664;28;20104;-60
2023/08/29 06:41:05;;;;;;;6.32;3.45;;;;;;;;;;5033054;28;20053;-60
2023/08/29 06:43:31;;;;;;;11.57;3.15;;;;;;;;;;5045648;28;20060;-62
2023/08/29 06:45:58;;;;;;;6.32;2.85;;;;;;;;;;5042490;28;20053;-61
2023/08/29 06:48:24;;;;;;;4.57;2.67;;;;;;;;;;5036516;28;20050;-62
2023/08/29 06:50:51;;;;;;;8.02;3.10;;;;;;;;;;5037930;28;20511;-62
2023/08/29 06:53:17;;;;;;;9.25;3.22;;;;;;;;;;5032378;28;20049;-61
2023/08/29 06:55:46;;;;;;;5.80;2.95;;;;;;;;;;5033117;28;20061;-62
2023/08/29 06:58:13;;;;;;;6.30;3.00;;;;;;;;;;5041522;28;20053;-62
2023/08/29 07:00:39;;;;;;;7.97;2.97;;;;;;;;;;5036359;28;20643;-62
2023/08/29 07:03:06;;;;;;;5.43;3.25;;;;;;;;;;5030630;28;20054;-61
2023/08/29 07:05:32;;;;;;;6.68;2.58;;;;;;;;;;5034350;28;20554;-62
2023/08/29 07:07:59;;;;;;;5.43;2.45;;;;;;;;;;5032965;28;20054;-62
2023/08/29 07:10:26;;;;;;;6.72;2.80;;;;;;;;;;5024690;28;20058;-61
2023/08/29 07:12:52;;;;;;;4.47;2.70;;;;;;;;;;5032328;28;20766;-62
2023/08/29 07:15:18;;;;;;;2.90;2.35;;;;;;;;;;5041518;28;20100;-62
2023/08/29 07:17:45;;;;;;;5.82;2.38;;;;;;;;;;5042074;28;20057;-62
2023/08/29 07:20:12;;;;;;;3.33;2.30;;;;;;;;;;5038618;28;20050;-62
2023/08/29 07:22:41;;;;;;;7.68;2.20;;;;;;;;;;5031864;28;20053;-62
2023/08/29 07:25:07;;;;;;;5.20;2.03;;;;;;;;;;5025275;28;20076;-62
2023/08/29 07:27:34;;;;;;;3.85;2.10;;;;;;;;;;5022876;28;20078;-62
2023/08/29 07:30:01;;;;;;;4.88;2.00;;;;;;;;;;5029931;28;20054;-60
2023/08/29 07:32:28;;;;;;;2.45;1.50;;;;;;;;;;5036977;28;20119;-60
2023/08/29 07:34:56;;;;;;;1.73;1.60;;;;;;;;;;5042857;28;20065;-59
2023/08/29 07:37:23;;;;;;;4.82;2.38;;;;;;;;;;5044365;28;20593;-61
2023/08/29 07:39:49;;;;;;;4.25;1.73;;;;;;;;;;5041285;28;20060;-60
2023/08/29 07:42:16;;;;;;;3.20;1.23;;;;;;;;;;5041870;28;20061;-58
2023/08/29 07:44:43;;;;;;;3.50;1.75;;;;;;;;;;5034389;28;20061;-60
2023/08/29 07:47:09;;;;;;;1.88;1.30;;;;;;;;;;5033237;28;20137;-60
2023/08/29 07:49:41;;;;;;;5.32;1.50;;;;;;;;;;5039880;28;20467;-58
2023/08/29 07:52:07;;;;;;;2.80;1.40;;;;;;;;;;5059849;28;20053;-60
2023/08/29 07:54:34;;;;;;;3.78;1.98;;;;;;;;;;5062002;28;20504;-59
2023/08/29 07:57:00;;;;;;;4.25;1.40;;;;;;;;;;5046741;28;20144;-59
2023/08/29 07:59:27;;;;;;;3.33;1.60;;;;;;;;;;5021771;28;20053;-59
2023/08/29 08:01:53;;;;;;;2.70;1.55;;;;;;;;;;5022266;28;20078;-59
2023/08/29 08:04:20;;;;;;;5.85;1.50;;;;;;;;;;5026022;28;20137;-59
2023/08/29 08:06:47;;;;;;;4.13;1.50;;;;;;;;;;5023494;28;20046;-59
2023/08/29 08:09:14;;;;;;;2.75;1.30;;;;;;;;;;5030803;28;20523;-60
2023/08/29 08:11:40;;;;;;;2.08;1.30;;;;;;;;;;5044321;28;20132;-59
2023/08/29 08:14:07;;;;;;;1.80;1.10;;;;;;;;;;5040630;28;20131;-59
2023/08/29 08:16:33;;;;;;;3.47;1.35;;;;;;;;;;5041735;28;20057;-60
2023/08/29 08:19:00;;;;;;;1.40;1.13;;;;;;;;;;5046161;28;20341;-60
2023/08/29 08:21:27;;;;;;;4.22;1.40;;;;;;;;;;5041191;28;20101;-60
2023/08/29 08:23:53;;;;;;;4.68;1.20;;;;;;;;;;5023484;28;20149;-61
2023/08/29 08:26:19;;;;;;;1.60;1.27;;;;;;;;;;5024414;28;20046;-60
2023/08/29 08:28:46;;;;;;;1.98;1.52;;;;;;;;;;5024439;28;20394;-60
2023/08/29 08:31:12;;;;;;;1.33;1.23;;;;;;;;;;5031987;28;20432;-60
2023/08/29 08:33:40;;;;;;;2.50;1.20;;;;;;;;;;5044397;28;20162;-60
2023/08/29 08:36:07;;;;;;;3.03;1.65;;;;;;;;;;5064221;28;20096;-60
2023/08/29 08:38:34;;;;;;;2.08;1.00;;;;;;;;;;5064624;28;20135;-59
2023/08/29 08:41:00;;;;;;;1.67;1.27;;;;;;;;;;5065063;28;20049;-60
2023/08/29 08:43:28;;;;;;;3.85;1.05;;;;;;;;;;5031899;28;20116;-60
2023/08/29 08:45:55;;;;;;;3.25;1.00;;;;;;;;;;5043882;28;20054;-60
2023/08/29 08:48:22;;;;;;;4.88;1.08;;;;;;;;;;5033062;28;20054;-61
2023/08/29 08:50:49;;;;;;;5.85;1.35;;;;;;;;;;5032151;28;20495;-60
2023/08/29 08:53:18;;;;;;;2.83;1.25;;;;;;;;;;5044000;28;20076;-58
2023/08/29 08:55:44;;;;;;;2.55;1.30;;;;;;;;;;5043839;28;20061;-61
2023/08/29 08:58:10;;;;;;;1.73;1.30;;;;;;;;;;5032014;28;20579;-61
2023/08/29 09:00:37;;;;;;;2.20;1.40;;;;;;;;;;5024573;28;20499;-60
2023/08/29 09:03:04;;;;;;;2.40;1.90;;;;;;;;;;5023996;28;20050;-57
2023/08/29 09:05:30;;;;;;;2.70;1.88;;;;;;;;;;5024753;28;20553;-60
2023/08/29 09:07:59;;;;;;;3.92;1.58;;;;;;;;;;5024063;28;20089;-60
2023/08/29 09:10:25;;;;;;;3.47;2.00;;;;;;;;;;5025555;28;20064;-59
2023/08/29 09:12:52;;;;;;;7.40;1.92;;;;;;;;;;5041615;28;20049;-60
2023/08/29 09:15:20;;;;;;;12.82;2.10;;;;;;;;;;5043640;28;20049;-60
2023/08/29 09:17:50;;;;;;;2.55;1.88;;;;;;;;;;5026727;28;20064;-59
2023/08/29 09:20:17;;;;;;;3.65;1.75;;;;;;;;;;5029720;28;20050;-60
2023/08/29 09:22:44;;;;;;;4.65;1.67;;;;;;;;;;5026741;28;20057;-59
2023/08/29 09:25:11;;;;;;;1.90;1.70;;;;;;;;;;5030024;28;20576;-61
2023/08/29 09:27:39;;;;;;;3.70;1.98;;;;;;;;;;5043847;28;20136;-61
2023/08/29 09:30:10;;;;;;;2.10;1.58;;;;;;;;;;5043582;28;20140;-60
2023/08/29 09:32:37;;;;;;;1.65;1.40;;;;;;;;;;5028238;28;20164;-59
2023/08/29 09:35:05;;;;;;;4.45;1.63;;;;;;;;;;5043705;28;20060;-60
2023/08/29 09:37:32;;;;;;;2.97;1.30;;;;;;;;;;5037891;28;20508;-60
2023/08/29 09:40:00;;;;;;;2.30;1.63;;;;;;;;;;5023609;28;20670;-61
2023/08/29 09:42:29;;;;;;;3.17;1.80;;;;;;;;;;5025483;28;20057;-58
2023/08/29 09:44:55;;;;;;;3.22;1.88;;;;;;;;;;5025777;28;20053;-58
2023/08/29 09:47:25;;;;;;;2.63;1.95;;;;;;;;;;5040707;28;20081;-61
2023/08/29 09:49:51;;;;;;;2.42;1.60;;;;;;;;;;5022993;28;20137;-61
2023/08/29 09:52:21;;;;;;;1.55;1.38;;;;;;;;;;5026492;28;20922;-61
2023/08/29 09:54:51;;;;;;;2.45;1.67;;;;;;;;;;5040926;28;20151;-60
2023/08/29 09:57:19;;;;;;;4.82;1.40;;;;;;;;;;5033500;28;20127;-59
2023/08/29 09:59:46;;;;;;;3.50;1.63;;;;;;;;;;5039101;28;20085;-61
2023/08/29 10:02:13;;;;;;;1.75;1.50;;;;;;;;;;5036757;28;20148;-61
2023/08/29 10:04:45;;;;;;;4.50;1.75;;;;;;;;;;5041850;28;20447;-60
2023/08/29 10:07:15;;;;;;;2.97;1.60;;;;;;;;;;5043284;28;20058;-60
2023/08/29 10:09:42;;;;;;;2.40;1.70;;;;;;;;;;5043113;28;20053;-60
2023/08/29 10:12:09;;;;;;;3.15;1.42;;;;;;;;;;5042969;28;20072;-60
2023/08/29 10:14:36;;;;;;;1.88;1.02;;;;;;;;;;5043290;28;20099;-60
2023/08/29 10:17:03;;;;;;;3.35;1.65;;;;;;;;;;5061445;28;20057;-60
2023/08/29 10:19:39;;;;;;;3.78;1.58;;;;;;;;;;5063185;28;20415;-60
2023/08/29 10:22:07;;;;;;;4.22;1.60;;;;;;;;;;5062852;28;20053;-60
2023/08/29 10:24:36;;;;;;;3.60;1.50;;;;;;;;;;5053799;28;20065;-59
2023/08/29 10:27:03;;;;;;;5.78;1.50;;;;;;;;;;5046125;28;20487;-61
2023/08/29 10:29:31;;;;;;;2.50;1.92;;;;;;;;;;5045808;28;20063;-59
2023/08/29 10:31:59;;;;;;;4.50;1.70;;;;;;;;;;5049234;28;20060;-61
2023/08/29 10:34:29;;;;;;;2.60;1.98;;;;;;;;;;5040740;28;20612;-62
2023/08/29 10:36:56;;;;;;;2.85;1.77;;;;;;;;;;5038120;28;20058;-58
2023/08/29 10:39:26;;;;;;;2.38;2.00;;;;;;;;;;5028307;28;20089;-57
2023/08/29 10:41:54;;;;;;;4.10;2.10;;;;;;;;;;5040416;28;21569;-58
2023/08/29 10:44:24;;;;;;;1.90;1.80;;;;;;;;;;5033114;28;20631;-58
2023/08/29 10:46:51;;;;;;;3.03;1.48;;;;;;;;;;5038017;28;20512;-58
2023/08/29 10:49:20;;;;;;;1.80;1.30;;;;;;;;;;5039549;28;20135;-58
2023/08/29 10:52:06;;;;;;;1.95;1.13;;;;;;;;;;5038961;28;20108;-57
2023/08/29 10:54:32;;;;;;;2.05;1.48;;;;;;;;;;5033848;28;20061;-57
2023/08/29 10:56:59;;;;;;;2.72;1.23;;;;;;;;;;5041036;28;20596;-58
2023/08/29 10:59:29;;;;;;;1.35;1.10;;;;;;;;;;5042652;28;20054;-57
2023/08/29 11:02:15;;;;;;;1.83;1.20;;;;;;;;;;5041968;28;20160;-57
2023/08/29 11:04:41;;;;;;;2.75;1.20;;;;;;;;;;5041360;28;20053;-58
2023/08/29 11:07:25;;;;;;;2.10;0.88;;;;;;;;;;5047300;28;20112;-57
2023/08/29 11:10:10;;;;;;;0.90;0.70;;;;;;;;;;5032440;28;20199;-59
2023/08/29 11:12:36;;;;;;;1.33;0.85;;;;;;;;;;5033768;28;20053;-59
2023/08/29 11:15:03;;;;;;;1.50;0.77;;;;;;;;;;5041778;28;20049;-60
2023/08/29 11:17:31;;;;;;;0.70;0.70;;;;;;;;;;5042631;28;20928;-60
2023/08/29 11:20:01;;;;;;;1.08;0.82;;;;;;;;;;5041506;28;20498;-60
2023/08/29 11:22:30;;;;;;;3.22;1.20;;;;;;;;;;5051125;28;20512;-59
2023/08/29 11:24:57;;;;;;;1.27;1.17;;;;;;;;;;5034831;28;20528;-60
2023/08/29 11:27:30;;;;;;;1.58;1.20;;;;;;;;;;5029680;28;20076;-58
2023/08/29 11:29:59;;;;;;;1.20;0.93;;;;;;;;;;5039217;28;20298;-58
2023/08/29 11:32:52;;;;;;;1.33;1.23;;;;;;;;;;5033533;28;20628;-59
2023/08/29 11:35:18;;;;;;;1.42;1.00;;;;;;;;;;5031337;28;20129;-60
2023/08/29 11:37:45;;;;;;;2.85;1.05;;;;;;;;;;5028078;28;20249;-60
2023/08/29 11:40:12;;;;;;;0.88;0.88;;;;;;;;;;5041625;28;20049;-61
2023/08/29 11:42:50;;;;;;;1.85;1.02;;;;;;;;;;5026483;28;20061;-61
2023/08/29 11:45:40;;;;;;;2.55;0.90;;;;;;;;;;5036948;28;20058;-59
2023/08/29 11:48:20;;;;;;;3.47;1.13;;;;;;;;;;5043748;28;20132;-60
2023/08/29 11:50:46;;;;;;;2.65;1.30;;;;;;;;;;5043016;28;20081;-61
2023/08/29 11:53:20;;;;;;;1.75;1.15;;;;;;;;;;5045476;28;21113;-61
2023/08/29 11:55:46;;;;;;;1.50;1.40;;;;;;;;;;5041341;28;20512;-60
2023/08/29 11:58:13;;;;;;;2.15;1.30;;;;;;;;;;5036090;28;20461;-60
2023/08/29 12:00:40;;;;;;;3.42;1.80;;;;;;;;;;5046503;28;20050;-60
2023/08/29 12:03:06;;;;;;;2.05;1.50;;;;;;;;;;5045037;28;20570;-60
2023/08/29 12:05:33;;;;;;;1.92;1.65;;;;;;;;;;5044048;28;20132;-59
2023/08/29 12:08:00;;;;;;;3.55;1.98;;;;;;;;;;5038167;28;20431;-59
2023/08/29 12:10:27;;;;;;;2.53;1.77;;;;;;;;;;5037074;28;20135;-60
2023/08/29 12:12:53;;;;;;;2.58;1.73;;;;;;;;;;5045116;28;20053;-62
2023/08/29 12:15:33;;;;;;;2.15;1.90;;;;;;;;;;5044224;28;20147;-61
2023/08/29 12:18:03;;;;;;;6.78;2.33;;;;;;;;;;5043179;28;20061;-61
2023/08/29 12:20:32;;;;;;;2.72;1.88;;;;;;;;;;5045838;28;20099;-61
2023/08/29 12:22:58;;;;;;;2.83;2.40;;;;;;;;;;5040185;28;20050;-60
2023/08/29 12:25:25;;;;;;;2.17;1.98;;;;;;;;;;5045659;28;20168;-61
2023/08/29 12:27:51;;;;;;;4.03;2.05;;;;;;;;;;5049558;28;20050;-61
2023/08/29 12:30:18;;;;;;;3.33;2.28;;;;;;;;;;5061234;28;20060;-61
2023/08/29 12:32:45;;;;;;;2.80;2.60;;;;;;;;;;5046605;28;20488;-61
2023/08/29 12:35:13;;;;;;;6.57;2.92;;;;;;;;;;5058946;28;20052;-61
2023/08/29 12:37:40;;;;;;;3.00;2.50;;;;;;;;;;5044229;28;20567;-60
2023/08/29 12:40:08;;;;;;;4.05;2.50;;;;;;;;;;5045334;28;20528;-61
2023/08/29 12:42:35;;;;;;;2.42;2.22;;;;;;;;;;5049371;28;20499;-60
2023/08/29 12:45:03;;;;;;;2.65;2.40;;;;;;;;;;5041641;28;20082;-59
2023/08/29 12:47:30;;;;;;;8.13;2.88;;;;;;;;;;5043667;28;20053;-61
2023/08/29 12:49:56;;;;;;;2.58;2.33;;;;;;;;;;5045019;28;20116;-60
2023/08/29 12:52:23;;;;;;;2.72;2.53;;;;;;;;;;5032936;28;20490;-61
2023/08/29 12:54:49;;;;;;;3.72;2.72;;;;;;;;;;5038535;28;20053;-60
2023/08/29 12:57:15;;;;;;;5.05;2.70;;;;;;;;;;5044307;28;20451;-61
2023/08/29 12:59:42;;;;;;;4.38;2.17;;;;;;;;;;5056670;28;20548;-60
2023/08/29 13:02:08;;;;;;;3.42;2.30;;;;;;;;;;5042214;28;20492;-60
2023/08/29 13:04:35;;;;;;;5.60;2.42;;;;;;;;;;5045292;28;20064;-60
2023/08/29 13:07:01;;;;;;;3.25;2.42;;;;;;;;;;5045198;28;20058;-61
2023/08/29 13:09:27;;;;;;;2.35;2.17;;;;;;;;;;5058776;28;20131;-61
2023/08/29 13:12:03;;;;;;;3.30;2.60;;;;;;;;;;5042816;28;20084;-58
2023/08/29 13:14:30;;;;;;;4.15;2.78;;;;;;;;;;5045666;28;20049;-60
2023/08/29 13:17:04;;;;;;;3.42;3.03;;;;;;;;;;5049336;28;20057;-60
2023/08/29 13:19:34;;;;;;;3.55;3.08;;;;;;;;;;5042913;28;20053;-59
2023/08/29 13:22:01;;;;;;;3.75;3.45;;;;;;;;;;5043914;28;20394;-60
2023/08/29 13:24:28;;;;;;;3.60;3.30;;;;;;;;;;5045160;28;20053;-59
2023/08/29 13:26:54;;;;;;;3.75;3.10;;;;;;;;;;5041822;28;20049;-60
2023/08/29 13:29:20;;;;;;;4.47;3.58;;;;;;;;;;5045898;28;20058;-61
2023/08/29 13:31:47;;;;;;;4.38;3.60;;;;;;;;;;5056793;28;20473;-58
2023/08/29 13:34:13;;;;;;;5.07;3.95;;;;;;;;;;5043396;28;20065;-59
2023/08/29 13:36:40;;;;;;;4.15;3.75;;;;;;;;;;5043786;28;20057;-60
2023/08/29 13:39:07;;;;;;;5.13;4.20;;;;;;;;;;5045077;28;20053;-60
2023/08/29 13:41:33;;;;;;;5.15;4.10;;;;;;;;;;5047527;28;20057;-61
2023/08/29 13:44:00;;;;;;;5.13;4.47;;;;;;;;;;5044503;28;20077;-60
2023/08/29 13:46:26;;;;;;;6.13;4.90;;;;;;;;;;5050486;28;20524;-59
2023/08/29 13:48:53;;;;;;;4.63;4.22;;;;;;;;;;5043613;28;20056;-60
2023/08/29 13:51:19;;;;;;;7.57;5.10;;;;;;;;;;5044134;28;20152;-59
2023/08/29 13:53:45;;;;;;;5.65;4.88;;;;;;;;;;5042884;28;20057;-61
2023/08/29 13:56:12;;;;;;;5.45;4.65;;;;;;;;;;5036947;28;20053;-61
2023/08/29 13:58:38;;;;;;;6.45;4.18;;;;;;;;;;5028202;28;20493;-61
2023/08/29 14:01:05;;;;;;;7.22;4.38;;;;;;;;;;5039913;28;20068;-60
2023/08/29 14:03:31;;;;;;;5.03;4.53;;;;;;;;;;5043499;28;20512;-63
2023/08/29 14:06:05;;;;;;;5.00;4.50;;;;;;;;;;5043999;28;20057;-58
2023/08/29 14:08:31;;;;;;;5.93;5.25;;;;;;;;;;5043741;28;20554;-61
2023/08/29 14:10:59;;;;;;;6.40;5.47;;;;;;;;;;5043013;28;20057;-61
2023/08/29 14:13:26;;;;;;;6.70;5.25;;;;;;;;;;5058602;28;20049;-61
2023/08/29 14:15:56;;;;;;;7.30;4.85;;;;;;;;;;5037836;28;20569;-62
2023/08/29 14:18:23;;;;;;;4.20;3.80;;;;;;;;;;5035856;28;20083;-61
2023/08/29 14:20:49;;;;;;;6.53;3.72;;;;;;;;;;5036325;28;20124;-60
2023/08/29 14:23:16;;;;;;;3.45;3.00;;;;;;;;;;5043252;28;20598;-60
2023/08/29 14:25:42;;;;;;;4.13;3.08;;;;;;;;;;5039885;28;20057;-61
2023/08/29 14:28:08;;;;;;;4.03;2.80;;;;;;;;;;5042815;28;20076;-61
2023/08/29 14:30:40;;;;;;;6.85;3.05;;;;;;;;;;5041919;28;20053;-59
2023/08/29 14:33:06;;;;;;;4.10;2.55;;;;;;;;;;5027211;28;20112;-61
2023/08/29 14:35:33;;;;;;;3.60;2.17;;;;;;;;;;5036225;28;20641;-60
2023/08/29 14:37:59;;;;;;;5.10;2.30;;;;;;;;;;5025017;28;20512;-61
2023/08/29 14:40:28;;;;;;;4.80;2.55;;;;;;;;;;5026454;28;20050;-61
2023/08/29 14:42:54;;;;;;;4.70;3.05;;;;;;;;;;5023132;28;20148;-61
2023/08/29 14:45:20;;;;;;;3.35;2.65;;;;;;;;;;5023214;28;20129;-60